createdAt,value
2023-04-11T00:01:26.873Z,97494.88
2023-04-11T00:03:54.027Z,97491.34
2023-04-11T00:06:21.050Z,97482.41
2023-04-11T00:08:47.885Z,97480.50
2023-04-11T00:11:14.797Z,97484.53
2023-04-11T00:13:42.025Z,97484.53
2023-04-11T00:16:10.505Z,97491.78
2023-04-11T00:18:37.576Z,97481.88
2023-04-11T00:21:04.637Z,97477.03
2023-04-11T00:23:31.450Z,97469.25
2023-04-11T00:25:58.297Z,97465.47
2023-04-11T00:28:25.089Z,97457.38
2023-04-11T00:30:51.888Z,97445.81
2023-04-11T00:33:20.108Z,97431.81
2023-04-11T00:35:47.008Z,97407.94
2023-04-11T00:38:13.877Z,97402.56
2023-04-11T00:40:40.799Z,97403.88
2023-04-11T00:43:07.614Z,97405.25
2023-04-11T00:45:34.733Z,97402.28
2023-04-11T00:48:01.781Z,97391.19
2023-04-11T00:50:29.994Z,97383.13
2023-04-11T00:52:56.892Z,97392.22
2023-04-11T00:55:23.989Z,97393.84
2023-04-11T00:57:53.142Z,97393.28
2023-04-11T01:00:19.974Z,97406.75
2023-04-11T01:02:46.991Z,97421.81
2023-04-11T01:05:14.917Z,97434.00
2023-04-11T01:07:44.320Z,97443.66
2023-04-11T01:10:11.657Z,97452.84
2023-04-11T01:12:38.789Z,97441.56
2023-04-11T01:15:06.296Z,97444.53
2023-04-11T01:17:33.236Z,97432.97
2023-04-11T01:20:00.264Z,97430.53
2023-04-11T01:22:27.941Z,97427.31
2023-04-11T01:24:56.211Z,97426.06
2023-04-11T01:27:23.339Z,97415.00
2023-04-11T01:29:50.140Z,97400.69
2023-04-11T01:32:17.263Z,97392.38
2023-04-11T01:34:44.671Z,97401.28
2023-04-11T01:37:11.483Z,97406.94
2023-04-11T01:39:38.358Z,97418.81
2023-04-11T01:42:06.700Z,97403.97
2023-04-11T01:44:33.825Z,97399.91
2023-04-11T01:47:01.275Z,97369.72
2023-04-11T01:49:28.137Z,97368.09
2023-04-11T01:51:55.046Z,97367.81
2023-04-11T01:54:21.903Z,97366.72
2023-04-11T01:56:48.741Z,97372.41
2023-04-11T01:59:16.910Z,97347.91
2023-04-11T02:01:43.900Z,97353.03
2023-04-11T02:04:11.063Z,97343.06
2023-04-11T02:06:37.988Z,97333.06
2023-04-11T02:09:04.885Z,97329.06
2023-04-11T02:11:31.692Z,97333.66
2023-04-11T02:13:58.511Z,97331.81
2023-04-11T02:16:26.722Z,97341.81
2023-04-11T02:18:53.726Z,97334.56
2023-04-11T02:21:20.696Z,97331.03
2023-04-11T02:23:47.621Z,97321.38
2023-04-11T02:26:14.432Z,97326.75
2023-04-11T02:28:41.304Z,97321.63
2023-04-11T02:31:08.227Z,97327.56
2023-04-11T02:33:36.436Z,97321.31
2023-04-11T02:36:03.503Z,97312.94
2023-04-11T02:38:30.396Z,97311.03
2023-04-11T02:40:57.210Z,97311.03
2023-04-11T02:43:24.008Z,97298.69
2023-04-11T02:45:52.429Z,97299.19
2023-04-11T02:48:23.137Z,97310.25
2023-04-11T02:50:51.455Z,97316.22
2023-04-11T02:53:18.264Z,97314.03
2023-04-11T02:55:45.068Z,97319.72
2023-04-11T02:58:11.916Z,97325.66
2023-04-11T03:00:38.737Z,97327.28
2023-04-11T03:03:05.612Z,97333.50
2023-04-11T03:05:32.682Z,97323.34
2023-04-11T03:08:00.852Z,97319.59
2023-04-11T03:10:27.645Z,97314.47
2023-04-11T03:12:54.690Z,97308.31
2023-04-11T03:15:21.560Z,97305.31
2023-04-11T03:17:48.384Z,97301.78
2023-04-11T03:20:15.305Z,97307.72
2023-04-11T03:22:42.115Z,97304.19
2023-04-11T03:25:10.619Z,97292.25
2023-04-11T03:27:37.464Z,97300.63
2023-04-11T03:30:04.745Z,97296.03
2023-04-11T03:32:31.574Z,97300.91
2023-04-11T03:35:00.314Z,97251.06
2023-04-11T03:37:27.297Z,97282.84
2023-04-11T03:39:54.111Z,97275.88
2023-04-11T03:42:22.298Z,97267.56
2023-04-11T03:44:49.107Z,97267.03
2023-04-11T03:47:15.919Z,97271.34
2023-04-11T03:49:42.759Z,97276.75
2023-04-11T03:52:09.615Z,97281.06
2023-04-11T03:54:36.478Z,97271.72
2023-04-11T03:57:03.419Z,97266.63
2023-04-11T03:59:31.619Z,97250.50
2023-04-11T04:01:58.505Z,97254.78
2023-04-11T04:04:25.506Z,97247.25
2023-04-11T04:06:52.335Z,97236.19
2023-04-11T04:09:19.129Z,97242.09
2023-04-11T04:11:45.978Z,97248.59
2023-04-11T04:14:12.782Z,97247.81
2023-04-11T04:16:41.093Z,97245.59
2023-04-11T04:19:08.090Z,97238.63
2023-04-11T04:21:34.876Z,97229.25
2023-04-11T04:24:01.673Z,97233.63
2023-04-11T04:26:28.493Z,97225.75
2023-04-11T04:28:55.485Z,97218.09
2023-04-11T04:31:22.346Z,97229.63
2023-04-11T04:33:50.577Z,97231.91
2023-04-11T04:36:17.366Z,97228.56
2023-04-11T04:38:44.190Z,97213.38
2023-04-11T04:41:11.041Z,97213.53
2023-04-11T04:43:37.833Z,97205.22
2023-04-11T04:46:04.999Z,97203.59
2023-04-11T04:48:31.855Z,97206.09
2023-04-11T04:51:00.011Z,97190.34
2023-04-11T04:53:26.945Z,97192.13
2023-04-11T04:55:53.867Z,97188.88
2023-04-11T04:58:20.680Z,97186.63
2023-04-11T05:00:48.399Z,97194.13
2023-04-11T05:03:15.309Z,97194.91
2023-04-11T05:05:42.579Z,97153.34
2023-04-11T05:08:10.732Z,97194.13
2023-04-11T05:10:37.751Z,97193.03
2023-04-11T05:13:04.561Z,97182.97
2023-04-11T05:15:31.376Z,97181.34
2023-04-11T05:17:58.257Z,97184.09
2023-04-11T05:20:25.115Z,97187.59
2023-04-11T05:22:51.955Z,97205.94
2023-04-11T05:25:20.411Z,97206.81
2023-04-11T05:27:47.218Z,97220.84
2023-04-11T05:30:14.233Z,97226.88
2023-04-11T05:32:41.071Z,97226.34
2023-04-11T05:35:08.092Z,97238.78
2023-04-11T05:37:34.921Z,97241.50
2023-04-11T05:40:01.736Z,97236.16
2023-04-11T05:42:29.920Z,97237.25
2023-04-11T05:44:56.718Z,97241.81
2023-04-11T05:47:23.768Z,97225.63
2023-04-11T05:49:50.610Z,97225.03
2023-04-11T05:52:17.441Z,97225.56
2023-04-11T05:54:44.279Z,97198.31
2023-04-11T05:57:11.140Z,97203.69
2023-04-11T05:59:39.290Z,97218.50
2023-04-11T06:02:06.130Z,97223.59
2023-04-11T06:04:33.204Z,97213.34
2023-04-11T06:07:00.279Z,97197.00
2023-04-11T06:09:27.115Z,97210.25
2023-04-11T06:11:54.510Z,97224.81
2023-04-11T06:14:21.318Z,97226.47
2023-04-11T06:16:49.582Z,97231.31
2023-04-11T06:19:16.379Z,97229.19
2023-04-11T06:21:43.180Z,97234.34
2023-04-11T06:24:10.884Z,97216.38
2023-04-11T06:26:37.883Z,97210.09
2023-04-11T06:29:05.601Z,97210.63
2023-04-11T06:31:32.551Z,97218.97
2023-04-11T06:34:00.956Z,97223.56
2023-04-11T06:36:27.765Z,97232.16
2023-04-11T06:38:54.698Z,97224.59
2023-04-11T06:41:21.553Z,97234.56
2023-04-11T06:43:48.345Z,97237.81
2023-04-11T06:46:15.236Z,97231.28
2023-04-11T06:48:42.055Z,97229.19
2023-04-11T06:51:10.241Z,97232.94
2023-04-11T06:53:37.094Z,97241.31
2023-04-11T06:56:04.128Z,97245.63
2023-04-11T06:58:30.958Z,97244.50
2023-04-11T07:00:57.796Z,97236.19
2023-04-11T07:03:24.732Z,97233.78
2023-04-11T07:05:51.819Z,97238.72
2023-04-11T07:08:19.996Z,97237.13
2023-04-11T07:10:46.826Z,97242.31
2023-04-11T07:13:13.655Z,97250.16
2023-04-11T07:15:40.533Z,97254.88
2023-04-11T07:18:07.394Z,97248.28
2023-04-11T07:20:34.291Z,97263.03
2023-04-11T07:23:01.216Z,97262.97
2023-04-11T07:25:29.494Z,97264.34
2023-04-11T07:27:56.433Z,97253.59
2023-04-11T07:30:23.327Z,97260.59
2023-04-11T07:32:50.169Z,97256.44
2023-04-11T07:35:17.014Z,97257.03
2023-04-11T07:37:43.942Z,97269.31
2023-04-11T07:40:11.178Z,97274.47
2023-04-11T07:42:39.331Z,97266.47
2023-04-11T07:45:06.934Z,97273.44
2023-04-11T07:47:33.848Z,97293.38
2023-04-11T07:50:00.707Z,97312.66
2023-04-11T07:52:27.571Z,97327.28
2023-04-11T07:54:54.468Z,97325.69
2023-04-11T07:57:21.406Z,97332.69
2023-04-11T07:59:49.619Z,97333.47
2023-04-11T08:02:16.559Z,97332.84
2023-04-11T08:04:43.514Z,97340.69
2023-04-11T08:07:10.560Z,97337.22
2023-04-11T08:09:40.376Z,97343.63
2023-04-11T08:12:07.479Z,97350.28
2023-04-11T08:14:34.492Z,97356.91
2023-04-11T08:17:03.013Z,97358.41
2023-04-11T08:19:33.575Z,97370.38
2023-04-11T08:22:00.395Z,97373.84
2023-04-11T08:24:27.205Z,97376.69
2023-04-11T08:26:54.008Z,97378.31
2023-04-11T08:29:20.891Z,97384.16
2023-04-11T08:31:47.694Z,97384.44
2023-04-11T08:34:15.853Z,97390.34
2023-04-11T08:36:42.675Z,97392.25
2023-04-11T08:39:09.484Z,97391.22
2023-04-11T08:41:37.518Z,97389.97
2023-04-11T08:44:04.450Z,97386.00
2023-04-11T08:46:32.275Z,97380.72
2023-04-11T08:49:00.329Z,97370.47
2023-04-11T08:51:28.522Z,97377.28
2023-04-11T08:53:57.467Z,97376.75
2023-04-11T08:56:24.562Z,97371.72
2023-04-11T08:58:51.391Z,97378.50
2023-04-11T09:01:24.987Z,97375.84
2023-04-11T09:03:51.858Z,97365.06
2023-04-11T09:06:18.781Z,97375.31
2023-04-11T09:08:47.005Z,97366.72
2023-04-11T09:11:13.832Z,97388.06
2023-04-11T09:13:40.652Z,97390.50
2023-04-11T09:16:08.638Z,97381.13
2023-04-11T09:18:36.839Z,97395.13
2023-04-11T09:21:05.020Z,97391.66
2023-04-11T09:23:31.835Z,97366.09
2023-04-11T09:26:00.087Z,97378.50
2023-04-11T09:28:27.047Z,97368.56
2023-04-11T09:30:54.849Z,97371.78
2023-04-11T09:33:22.600Z,97377.75
2023-04-11T09:35:50.254Z,97377.00
2023-04-11T09:38:32.032Z,97373.47
2023-04-11T09:41:00.730Z,97375.91
2023-04-11T09:43:27.721Z,97382.91
2023-04-11T09:46:10.188Z,97384.81
2023-04-11T09:48:46.139Z,97380.75
2023-04-11T09:51:21.077Z,97376.13
2023-04-11T09:54:01.295Z,97378.81
2023-04-11T09:56:30.600Z,97377.44
2023-04-11T09:58:58.797Z,97373.44
2023-04-11T10:01:25.899Z,97378.03
2023-04-11T10:03:53.049Z,97371.59
2023-04-11T10:06:22.910Z,97365.97
2023-04-11T10:08:50.297Z,97372.16
2023-04-11T10:11:17.249Z,97377.81
2023-04-11T10:13:46.028Z,97384.28
2023-04-11T10:16:13.714Z,97387.78
2023-04-11T10:18:59.109Z,97384.56
2023-04-11T10:21:38.163Z,97377.34
2023-04-11T10:24:08.629Z,97378.69
2023-04-11T10:26:45.756Z,97382.22
2023-04-11T10:29:27.453Z,97384.41
2023-04-11T10:32:11.193Z,97380.09
2023-04-11T10:34:38.102Z,97388.44
2023-04-11T10:37:06.854Z,97397.59
2023-04-11T10:39:52.243Z,97395.41
2023-04-11T10:42:28.582Z,97405.59
2023-04-11T10:45:19.243Z,97393.00
2023-04-11T10:48:01.052Z,97391.09
2023-04-11T10:50:36.326Z,97385.69
2023-04-11T10:53:03.850Z,97381.66
2023-04-11T10:55:31.412Z,97387.56
2023-04-11T10:58:04.816Z,97385.16
2023-04-11T11:00:57.352Z,97370.19
2023-04-11T11:03:27.182Z,97390.81
2023-04-11T11:05:57.540Z,97390.81
2023-04-11T11:08:26.603Z,97395.97
2023-04-11T11:10:53.456Z,97391.94
2023-04-11T11:13:20.277Z,97396.81
2023-04-11T11:15:47.973Z,97397.03
2023-04-11T11:18:15.524Z,97407.53
2023-04-11T11:20:43.745Z,97401.63
2023-04-11T11:23:10.724Z,97399.41
2023-04-11T11:25:37.542Z,97397.78
2023-04-11T11:28:05.495Z,97389.94
2023-04-11T11:30:32.717Z,97389.16
2023-04-11T11:32:59.659Z,97377.91
2023-04-11T11:35:26.523Z,97388.09
2023-04-11T11:37:54.857Z,97380.03
2023-04-11T11:40:22.008Z,97377.34
2023-04-11T11:42:51.912Z,97368.97
2023-04-11T11:45:19.669Z,97371.66
2023-04-11T11:47:47.629Z,97376.16
2023-04-11T11:50:24.365Z,97372.88
2023-04-11T11:52:51.187Z,97369.09
2023-04-11T11:55:32.043Z,97378.09
2023-04-11T11:58:00.173Z,97374.59
2023-04-11T12:00:27.900Z,97364.63
2023-04-11T12:02:55.931Z,97351.75
2023-04-11T12:05:24.418Z,97362.00
2023-04-11T12:07:53.394Z,97373.56
2023-04-11T12:10:20.280Z,97364.31
2023-04-11T12:12:53.604Z,97371.00
2023-04-11T12:15:22.214Z,97372.59
2023-04-11T12:17:49.649Z,97380.38
2023-04-11T12:20:16.710Z,97384.41
2023-04-11T12:22:43.548Z,97390.09
2023-04-11T12:25:11.234Z,97391.44
2023-04-11T12:27:38.681Z,97382.28
2023-04-11T12:30:07.809Z,97375.53
2023-04-11T12:32:34.870Z,97376.88
2023-04-11T12:35:01.832Z,97383.31
2023-04-11T12:37:28.762Z,97382.78
2023-04-11T12:39:55.593Z,97387.34
2023-04-11T12:42:26.704Z,97380.06
2023-04-11T12:44:54.628Z,97377.06
2023-04-11T12:47:22.876Z,97381.38
2023-04-11T12:49:49.788Z,97374.34
2023-04-11T12:52:17.298Z,97381.38
2023-04-11T12:54:44.093Z,97389.44
2023-04-11T12:57:10.916Z,97378.13
2023-04-11T12:59:37.802Z,97378.63
2023-04-11T13:02:04.682Z,97387.72
2023-04-11T13:04:33.086Z,97373.13
2023-04-11T13:07:00.062Z,97368.81
2023-04-11T13:09:26.877Z,97371.72
2023-04-11T13:11:53.704Z,97373.06
2023-04-11T13:14:20.534Z,97369.59
2023-04-11T13:16:47.384Z,97358.22
2023-04-11T13:19:14.233Z,97356.03
2023-04-11T13:21:42.433Z,97361.41
2023-04-11T13:24:09.223Z,97370.47
2023-04-11T13:26:36.350Z,97356.41
2023-04-11T13:29:03.188Z,97357.50
2023-04-11T13:31:30.026Z,97349.97
2023-04-11T13:33:56.907Z,97361.56
2023-04-11T13:36:24.110Z,97357.00
2023-04-11T13:38:52.808Z,97365.00
2023-04-11T13:41:19.781Z,97363.66
2023-04-11T13:43:46.640Z,97378.06
2023-04-11T13:46:13.478Z,97374.19
2023-04-11T13:48:40.401Z,97376.56
2023-04-11T13:51:07.675Z,97373.38
2023-04-11T13:53:34.510Z,97375.63
2023-04-11T13:56:04.854Z,97382.50
2023-04-11T13:58:31.819Z,97379.34
2023-04-11T14:00:58.691Z,97385.34
2023-04-11T14:03:25.656Z,97391.31
2023-04-11T14:05:52.613Z,97387.56
2023-04-11T14:08:19.532Z,97396.22
2023-04-11T14:10:46.335Z,97410.53
2023-04-11T14:13:14.535Z,97421.06
2023-04-11T14:15:41.384Z,97433.50
2023-04-11T14:18:08.216Z,97424.13
2023-04-11T14:20:35.131Z,97424.38
2023-04-11T14:23:01.973Z,97428.13
2023-04-11T14:25:28.785Z,97431.31
2023-04-11T14:27:55.651Z,97431.81
2023-04-11T14:30:23.852Z,97435.34
2023-04-11T14:32:50.745Z,97433.63
2023-04-11T14:35:17.660Z,97436.72
2023-04-11T14:37:44.482Z,97430.16
2023-04-11T14:40:11.548Z,97435.31
2023-04-11T14:42:38.403Z,97428.84
2023-04-11T14:45:05.823Z,97429.03
2023-04-11T14:47:34.072Z,97419.88
2023-04-11T14:50:01.027Z,97427.41
2023-04-11T14:52:28.098Z,97429.16
2023-04-11T14:54:55.327Z,97425.31
2023-04-11T14:57:22.381Z,97419.25
2023-04-11T14:59:49.193Z,97420.59
2023-04-11T15:02:16.123Z,97419.19
2023-04-11T15:04:44.454Z,97417.91
2023-04-11T15:07:11.278Z,97417.84
2023-04-11T15:09:38.066Z,97410.66
2023-04-11T15:12:05.418Z,97407.66
2023-04-11T15:14:32.266Z,97406.16
2023-04-11T15:16:59.069Z,97405.56
2023-04-11T15:19:25.913Z,97400.69
2023-04-11T15:21:54.101Z,97400.31
2023-04-11T15:24:20.901Z,97401.88
2023-04-11T15:26:47.710Z,97400.03
2023-04-11T15:29:14.849Z,97384.44
2023-04-11T15:31:41.713Z,97391.50
2023-04-11T15:34:08.604Z,97397.41
2023-04-11T15:36:36.258Z,97392.75
2023-04-11T15:39:04.434Z,97393.88
2023-04-11T15:41:31.281Z,97394.75
2023-04-11T15:43:58.419Z,97396.88
2023-04-11T15:46:25.405Z,97405.41
2023-04-11T15:48:52.239Z,97387.91
2023-04-11T15:51:19.045Z,97393.09
2023-04-11T15:53:45.841Z,97396.97
2023-04-11T15:56:14.297Z,97406.94
2023-04-11T15:58:41.085Z,97400.25
2023-04-11T16:01:17.588Z,97399.22
2023-04-11T16:03:44.658Z,97409.16
2023-04-11T16:06:11.697Z,97416.41
2023-04-11T16:08:38.528Z,97406.19
2023-04-11T16:11:05.644Z,97406.16
2023-04-11T16:13:33.805Z,97417.09
2023-04-11T16:16:00.755Z,97414.94
2023-04-11T16:18:27.737Z,97401.47
2023-04-11T16:20:54.773Z,97407.66
2023-04-11T16:23:21.629Z,97413.56
2023-04-11T16:25:48.417Z,97407.88
2023-04-11T16:28:15.222Z,97418.66
2023-04-11T16:30:43.521Z,97410.28
2023-04-11T16:33:10.515Z,97412.47
2023-04-11T16:35:37.394Z,97403.13
2023-04-11T16:38:04.568Z,97418.50
2023-04-11T16:40:33.133Z,97421.47
2023-04-11T16:43:00.142Z,97417.75
2023-04-11T16:45:26.981Z,97422.91
2023-04-11T16:47:55.184Z,97425.91
2023-04-11T16:50:22.137Z,97427.25
2023-04-11T16:52:48.980Z,97427.56
2023-04-11T16:55:15.935Z,97430.78
2023-04-11T16:57:42.752Z,97426.44
2023-04-11T17:00:10.456Z,97435.56
2023-04-11T17:02:37.385Z,97429.88
2023-04-11T17:05:06.476Z,97434.44
2023-04-11T17:07:33.542Z,97399.38
2023-04-11T17:10:00.489Z,97432.63
2023-04-11T17:12:27.381Z,97428.28
2023-04-11T17:14:54.233Z,97430.47
2023-04-11T17:17:21.116Z,97429.69
2023-04-11T17:19:48.041Z,97410.69
2023-04-11T17:22:16.250Z,97431.59
2023-04-11T17:24:43.056Z,97433.50
2023-04-11T17:27:09.849Z,97434.31
2023-04-11T17:29:36.700Z,97435.19
2023-04-11T17:32:03.536Z,97441.91
2023-04-11T17:34:30.336Z,97435.97
2023-04-11T17:36:57.260Z,97444.38
2023-04-11T17:39:25.481Z,97441.94
2023-04-11T17:41:52.490Z,97446.81
2023-04-11T17:44:19.303Z,97451.91
2023-04-11T17:46:46.115Z,97451.91
2023-04-11T17:49:12.922Z,97458.63
2023-04-11T17:51:48.624Z,97466.16
2023-04-11T17:54:19.390Z,97467.47
2023-04-11T17:56:47.577Z,97466.69
2023-04-11T17:59:14.384Z,97468.84
2023-04-11T18:01:41.247Z,97463.75
2023-04-11T18:04:08.184Z,97463.72
2023-04-11T18:06:35.080Z,97466.16
2023-04-11T18:09:01.941Z,97458.63
2023-04-11T18:11:28.781Z,97471.28
2023-04-11T18:13:57.242Z,97472.91
2023-04-11T18:16:24.323Z,97471.28
2023-04-11T18:18:51.188Z,97472.97
2023-04-11T18:21:18.674Z,97476.50
2023-04-11T18:23:45.490Z,97478.94
2023-04-11T18:26:12.412Z,97477.31
2023-04-11T18:28:39.222Z,97483.47
2023-04-11T18:31:07.414Z,97483.22
2023-04-11T18:33:36.723Z,97487.25
2023-04-11T18:36:04.953Z,97493.16
2023-04-11T18:38:31.819Z,97491.78
2023-04-11T18:41:02.259Z,97481.81
2023-04-11T18:43:32.217Z,97495.53
2023-04-11T18:46:00.669Z,97495.53
2023-04-11T18:48:28.920Z,97496.38
2023-04-11T18:50:58.994Z,97500.94
2023-04-11T18:53:25.905Z,97498.25
2023-04-11T18:55:52.696Z,97496.13
2023-04-11T18:58:22.425Z,97503.41
2023-04-11T19:00:50.829Z,97505.28
2023-04-11T19:03:18.057Z,97507.16
2023-04-11T19:05:46.651Z,97506.66
2023-04-11T19:08:13.832Z,97508.28
2023-04-11T19:10:40.645Z,97506.19
2023-04-11T19:13:07.483Z,97512.91
2023-04-11T19:15:34.405Z,97509.41
2023-04-11T19:18:01.222Z,97505.88
2023-04-11T19:20:28.086Z,97505.34
2023-04-11T19:22:56.305Z,97504.03
2023-04-11T19:25:23.112Z,97508.28
2023-04-11T19:27:49.993Z,97502.63
2023-04-11T19:30:17.168Z,97479.28
2023-04-11T19:32:44.187Z,97506.13
2023-04-11T19:35:11.653Z,97500.47
2023-04-11T19:37:38.528Z,97510.41
2023-04-11T19:40:07.618Z,97510.19
2023-04-11T19:42:34.654Z,97499.41
2023-04-11T19:45:01.520Z,97503.16
2023-04-11T19:47:28.469Z,97498.06
2023-04-11T19:49:55.312Z,97497.78
2023-04-11T19:52:22.128Z,97496.72
2023-04-11T19:54:48.934Z,97494.31
2023-04-11T19:57:17.099Z,97498.66
2023-04-11T19:59:43.917Z,97492.22
2023-04-11T20:02:10.797Z,97491.16
2023-04-11T20:04:37.661Z,97497.34
2023-04-11T20:07:04.556Z,97495.97
2023-04-11T20:09:31.369Z,97495.72
2023-04-11T20:11:58.165Z,97484.16
2023-04-11T20:14:26.350Z,97480.34
2023-04-11T20:16:53.245Z,97482.50
2023-04-11T20:19:20.050Z,97480.59
2023-04-11T20:21:46.868Z,97481.66
2023-04-11T20:24:13.655Z,97479.53
2023-04-11T20:26:40.459Z,97475.75
2023-04-11T20:29:07.296Z,97466.34
2023-04-11T20:31:35.457Z,97474.16
2023-04-11T20:34:02.261Z,97466.34
2023-04-11T20:36:29.154Z,97467.72
2023-04-11T20:38:55.975Z,97468.78
2023-04-11T20:41:22.773Z,97467.72
2023-04-11T20:43:49.674Z,97474.44
2023-04-11T20:46:16.503Z,97472.06
2023-04-11T20:48:44.694Z,97470.97
2023-04-11T20:51:11.519Z,97468.59
2023-04-11T20:53:38.333Z,97470.50
2023-04-11T20:56:05.410Z,97462.97
2023-04-11T20:58:32.318Z,97464.28
2023-04-11T21:00:59.142Z,97455.13
2023-04-11T21:03:27.416Z,97461.84
2023-04-11T21:05:55.707Z,97463.41
2023-04-11T21:08:22.485Z,97451.59
2023-04-11T21:10:49.308Z,97451.06
2023-04-11T21:13:16.202Z,97451.06
2023-04-11T21:15:43.073Z,97445.16
2023-04-11T21:18:09.941Z,97448.13
2023-04-11T21:20:38.894Z,97459.16
2023-04-11T21:23:07.056Z,97470.97
2023-04-11T21:25:33.857Z,97469.38
2023-04-11T21:28:00.681Z,97475.56
2023-04-11T21:30:27.530Z,97471.56
2023-04-11T21:32:54.406Z,97475.84
2023-04-11T21:35:21.269Z,97480.16
2023-04-11T21:37:49.176Z,97477.53
2023-04-11T21:40:17.570Z,97465.66
2023-04-11T21:42:44.445Z,97466.50
2023-04-11T21:45:11.271Z,97449.00
2023-04-11T21:47:38.138Z,97450.63
2023-04-11T21:50:05.476Z,97443.34
2023-04-11T21:52:32.282Z,97453.84
2023-04-11T21:54:59.082Z,97446.56
2023-04-11T21:57:27.285Z,97453.25
2023-04-11T21:59:54.109Z,97453.78
2023-04-11T22:02:21.129Z,97441.97
2023-04-11T22:05:01.583Z,97445.19
2023-04-11T22:07:33.721Z,97443.53
2023-04-11T22:10:00.707Z,97438.22
2023-04-11T22:12:28.872Z,97427.72
2023-04-11T22:14:55.692Z,97421.53
2023-04-11T22:17:22.548Z,97423.72
2023-04-11T22:19:49.338Z,97419.13
2023-04-11T22:22:16.172Z,97423.19
2023-04-11T22:24:43.000Z,97420.19
2023-04-11T22:27:09.813Z,97409.50
2023-04-11T22:29:37.991Z,97411.66
2023-04-11T22:32:05.080Z,97410.88
2023-04-11T22:34:31.903Z,97417.84
2023-04-11T22:36:58.776Z,97417.31
2023-04-11T22:39:25.659Z,97407.91
2023-04-11T22:41:52.715Z,97407.59
2023-04-11T22:44:19.543Z,97406.28
2023-04-11T22:46:58.562Z,97402.72
2023-04-11T22:49:25.450Z,97411.06
2023-04-11T22:51:52.271Z,97409.47
2023-04-11T22:54:19.403Z,97398.72
2023-04-11T22:56:46.203Z,97397.38
2023-04-11T22:59:12.996Z,97400.59
2023-04-11T23:01:39.908Z,97397.38
2023-04-11T23:04:08.149Z,97387.13
2023-04-11T23:06:34.963Z,97383.41
2023-04-11T23:09:01.809Z,97378.59
2023-04-11T23:11:28.606Z,97365.69
2023-04-11T23:13:55.505Z,97371.59
2023-04-11T23:16:22.604Z,97372.97
2023-04-11T23:18:49.445Z,97368.13
2023-04-11T23:21:17.618Z,97370.81
2023-04-11T23:23:44.468Z,97372.44
2023-04-11T23:26:16.777Z,97371.63
2023-04-11T23:28:43.600Z,97357.88
2023-04-11T23:31:10.555Z,97354.13
2023-04-11T23:33:38.088Z,97357.34
2023-04-11T23:36:05.305Z,97354.09
2023-04-11T23:38:33.507Z,97361.06
2023-04-11T23:41:00.319Z,97347.63
2023-04-11T23:43:27.123Z,97344.94
2023-04-11T23:45:53.966Z,97344.69
2023-04-11T23:48:20.805Z,97344.69
2023-04-11T23:50:47.694Z,97340.69
2023-04-11T23:53:14.586Z,97338.78
2023-04-11T23:55:42.957Z,97339.06
2023-04-11T23:58:09.786Z,97333.47
